createdAt,value
2023-06-13T00:00:27.570Z,101107.25
2023-06-13T00:04:31.484Z,101116.75
2023-06-13T00:08:36.236Z,101117.41
2023-06-13T00:12:40.090Z,101116.97
2023-06-13T00:16:44.209Z,101117.03
2023-06-13T00:20:47.222Z,101117.72
2023-06-13T00:24:51.617Z,101113.66
2023-06-13T00:28:54.694Z,101114.03
2023-06-13T00:32:57.509Z,101106.91
2023-06-13T00:37:00.424Z,101113.59
2023-06-13T00:41:04.718Z,101112.03
2023-06-13T00:45:21.213Z,101111.34
2023-06-13T00:49:26.246Z,101107.81
2023-06-13T00:53:32.052Z,101115.31
2023-06-13T00:57:39.870Z,101122.28
2023-06-13T01:01:43.425Z,101121.00
2023-06-13T01:05:48.124Z,101125.44
2023-06-13T01:09:50.910Z,101116.94
2023-06-13T01:14:02.440Z,101111.75
2023-06-13T01:18:08.344Z,101112.59
2023-06-13T01:22:14.258Z,101117.34
2023-06-13T01:26:29.447Z,101115.75
2023-06-13T01:30:34.094Z,101113.88
2023-06-13T01:34:37.712Z,101112.56
2023-06-13T01:38:41.591Z,101108.72
2023-06-13T01:42:44.463Z,101107.09
2023-06-13T01:46:58.112Z,101116.50
2023-06-13T01:51:09.219Z,101108.56
2023-06-13T01:55:17.551Z,101110.81
2023-06-13T01:59:26.288Z,101114.19
2023-06-13T02:03:32.061Z,101104.59
2023-06-13T02:07:38.084Z,101108.22
2023-06-13T02:11:40.933Z,101106.03
2023-06-13T02:15:44.187Z,101112.41
2023-06-13T02:19:48.350Z,101102.53
2023-06-13T02:23:52.490Z,101100.88
2023-06-13T02:27:55.341Z,101102.84
2023-06-13T02:31:58.384Z,101098.97
2023-06-13T02:36:02.446Z,101093.50
2023-06-13T02:40:08.915Z,101100.69
2023-06-13T02:44:12.528Z,101107.84
2023-06-13T02:48:15.413Z,101104.56
2023-06-13T02:52:22.969Z,101106.22
2023-06-13T02:56:27.366Z,101109.25
2023-06-13T03:00:30.326Z,101108.16
2023-06-13T03:04:40.929Z,101112.59
2023-06-13T03:08:45.771Z,101110.16
2023-06-13T03:12:50.380Z,101108.78
2023-06-13T03:16:54.317Z,101110.69
2023-06-13T03:20:57.345Z,101108.50
2023-06-13T03:25:06.028Z,101097.78
2023-06-13T03:29:14.246Z,101100.84
2023-06-13T03:33:18.387Z,101101.38
2023-06-13T03:37:23.233Z,101110.47
2023-06-13T03:41:27.435Z,101104.16
2023-06-13T03:45:30.418Z,101102.78
2023-06-13T03:49:33.330Z,101109.38
2023-06-13T03:53:36.799Z,101101.94
2023-06-13T03:57:41.499Z,101113.78
2023-06-13T04:01:44.529Z,101112.13
2023-06-13T04:05:47.370Z,101115.13
2023-06-13T04:09:51.562Z,101118.44
2023-06-13T04:13:57.976Z,101127.25
2023-06-13T04:18:02.233Z,101119.25
2023-06-13T04:22:06.688Z,101114.03
2023-06-13T04:26:10.446Z,101118.44
2023-06-13T04:30:16.168Z,101114.56
2023-06-13T04:34:19.379Z,101118.16
2023-06-13T04:38:22.916Z,101121.72
2023-06-13T04:42:28.577Z,101112.66
2023-06-13T04:46:34.337Z,101113.47
2023-06-13T04:50:41.296Z,101118.41
2023-06-13T04:54:58.113Z,101104.69
2023-06-13T04:59:01.195Z,101110.97
2023-06-13T05:03:06.092Z,101119.50
2023-06-13T05:07:10.049Z,101116.75
2023-06-13T05:11:12.935Z,101118.38
2023-06-13T05:15:17.364Z,101120.56
2023-06-13T05:19:22.432Z,101119.44
2023-06-13T05:23:25.620Z,101124.13
2023-06-13T05:27:29.209Z,101120.50
2023-06-13T05:31:32.601Z,101123.25
2023-06-13T05:35:51.883Z,101132.31
2023-06-13T05:39:59.987Z,101134.75
2023-06-13T05:44:03.106Z,101130.25
2023-06-13T05:48:08.831Z,101128.81
2023-06-13T05:52:13.103Z,101136.94
2023-06-13T05:56:38.206Z,101139.81
2023-06-13T06:00:42.490Z,101132.63
2023-06-13T06:04:46.379Z,101137.94
2023-06-13T06:08:51.311Z,101141.50
2023-06-13T06:12:54.715Z,101134.97
2023-06-13T06:16:57.510Z,101138.97
2023-06-13T06:21:03.365Z,101140.19
2023-06-13T06:25:14.042Z,101132.31
2023-06-13T06:29:18.984Z,101136.47
2023-06-13T06:33:22.314Z,101127.59
2023-06-13T06:37:25.923Z,101133.53
2023-06-13T06:41:30.220Z,101132.81
2023-06-13T06:45:33.040Z,101135.16
2023-06-13T06:49:35.905Z,101126.66
2023-06-13T06:53:40.761Z,101126.09
2023-06-13T06:57:45.346Z,101117.81
2023-06-13T07:01:49.300Z,101122.72
2023-06-13T07:05:52.205Z,101126.94
2023-06-13T07:09:54.961Z,101131.28
2023-06-13T07:14:00.050Z,101131.91
2023-06-13T07:18:11.542Z,101136.72
2023-06-13T07:22:14.685Z,101147.44
2023-06-13T07:26:17.518Z,101149.13
2023-06-13T07:30:21.911Z,101135.84
2023-06-13T07:38:30.750Z,101134.50
2023-06-13T07:42:33.849Z,101139.84
2023-06-13T07:46:38.185Z,101123.72
2023-06-13T07:50:43.137Z,101130.00
2023-06-13T07:54:46.218Z,101127.56
2023-06-13T07:58:49.274Z,101133.28
2023-06-13T08:02:53.729Z,101131.94
2023-06-13T08:06:56.758Z,101128.16
2023-06-13T08:10:59.711Z,101126.78
2023-06-13T08:15:02.877Z,101115.66
2023-06-13T08:19:07.407Z,101125.97
2023-06-13T08:23:10.189Z,101128.47
2023-06-13T08:27:12.934Z,101124.41
2023-06-13T08:31:44.072Z,101116.69
2023-06-13T08:35:45.439Z,101128.09
2023-06-13T08:39:48.215Z,101116.44
2023-06-13T08:43:52.021Z,101124.13
2023-06-13T08:47:55.630Z,101118.63
2023-06-13T08:52:01.624Z,101115.16
2023-06-13T08:56:09.069Z,101122.50
2023-06-13T09:00:14.635Z,101115.13
2023-06-13T09:04:19.689Z,101107.13
2023-06-13T09:08:31.553Z,101097.69
2023-06-13T09:12:36.224Z,101100.00
2023-06-13T09:16:39.455Z,101107.50
2023-06-13T09:20:42.351Z,101100.81
2023-06-13T09:24:47.644Z,101101.97
2023-06-13T09:28:50.674Z,101094.25
2023-06-13T09:32:54.622Z,101097.38
2023-06-13T09:36:58.913Z,101087.44
2023-06-13T09:41:05.703Z,101087.81
2023-06-13T09:45:10.975Z,101074.75
2023-06-13T09:49:13.959Z,101075.34
2023-06-13T09:53:16.805Z,101061.91
2023-06-13T09:57:23.928Z,101075.50
2023-06-13T10:01:36.093Z,101073.25
2023-06-13T10:05:40.360Z,101067.44
2023-06-13T10:09:43.565Z,101060.75
2023-06-13T10:13:57.355Z,101052.44
2023-06-13T10:18:04.722Z,101052.19
2023-06-13T10:22:10.093Z,101059.47
2023-06-13T10:26:17.881Z,101055.75
2023-06-13T10:30:39.789Z,101052.41
2023-06-13T10:35:02.366Z,101053.50
2023-06-13T10:39:40.257Z,101052.72
2023-06-13T10:43:50.181Z,101043.56
2023-06-13T10:47:54.408Z,101043.31
2023-06-13T10:51:58.766Z,101049.03
2023-06-13T10:56:03.490Z,101050.22
2023-06-13T11:00:24.293Z,101032.88
2023-06-13T11:04:31.091Z,101039.75
2023-06-13T11:08:34.734Z,101034.94
2023-06-13T11:12:37.793Z,101025.09
2023-06-13T11:16:41.956Z,101035.63
2023-06-13T11:20:56.974Z,101017.19
2023-06-13T11:25:01.326Z,101017.13
2023-06-13T11:29:05.029Z,101010.38
2023-06-13T11:33:09.032Z,101014.84
2023-06-13T11:37:25.729Z,101008.88
2023-06-13T11:41:29.649Z,101001.25
2023-06-13T11:45:32.574Z,101000.16
2023-06-13T11:49:35.693Z,101008.72
2023-06-13T11:54:20.732Z,101001.09
2023-06-13T11:58:47.528Z,100994.25
2023-06-13T12:02:53.085Z,100998.69
2023-06-13T12:06:56.506Z,100992.22
2023-06-13T12:11:34.976Z,101000.69
2023-06-13T12:15:41.262Z,100998.25
2023-06-13T12:19:44.213Z,100989.47
2023-06-13T12:23:47.295Z,101002.00
2023-06-13T12:27:52.273Z,100983.91
2023-06-13T12:32:01.524Z,100989.91
2023-06-13T12:36:06.766Z,100981.41
2023-06-13T12:40:13.141Z,100978.53
2023-06-13T12:44:16.614Z,100979.56
2023-06-13T12:48:21.368Z,100969.47
2023-06-13T12:52:28.048Z,100981.91
2023-06-13T12:56:31.104Z,100967.31
2023-06-13T13:00:34.185Z,100965.78
2023-06-13T13:04:39.708Z,100975.28
2023-06-13T13:08:42.593Z,100966.81
2023-06-13T13:12:45.585Z,100960.47
2023-06-13T13:16:48.404Z,100950.28
2023-06-13T13:20:53.264Z,100939.47
2023-06-13T13:24:56.167Z,100952.69
2023-06-13T13:28:58.914Z,100949.03
2023-06-13T13:33:02.509Z,100948.81
2023-06-13T13:37:07.757Z,100953.25
2023-06-13T13:41:14.539Z,100931.84
2023-06-13T13:45:17.568Z,100929.03
2023-06-13T13:49:22.502Z,100945.25
2023-06-13T13:53:29.419Z,100929.19
2023-06-13T13:57:32.430Z,100929.09
2023-06-13T14:01:35.399Z,100923.03
2023-06-13T14:05:39.625Z,100923.44
2023-06-13T14:09:43.970Z,100925.47
2023-06-13T14:13:47.755Z,100917.34
2023-06-13T14:17:51.177Z,100911.59
2023-06-13T14:21:54.735Z,100902.03
2023-06-13T14:25:59.084Z,100909.56
2023-06-13T14:30:12.332Z,100909.66
2023-06-13T14:34:19.715Z,100904.34
2023-06-13T14:38:23.510Z,100904.22
2023-06-13T14:42:29.798Z,100904.53
2023-06-13T14:46:34.726Z,100905.38
2023-06-13T14:50:37.747Z,100904.53
2023-06-13T14:54:41.705Z,100902.75
2023-06-13T14:58:46.223Z,100908.72
2023-06-13T15:02:49.261Z,100899.88
2023-06-13T15:06:53.234Z,100902.22
2023-06-13T15:10:57.764Z,100902.28
2023-06-13T15:15:02.178Z,100894.91
2023-06-13T15:19:05.201Z,100891.59
2023-06-13T15:23:08.510Z,100883.00
2023-06-13T15:27:37.856Z,100885.75
2023-06-13T15:31:59.082Z,100886.81
2023-06-13T15:36:17.676Z,100881.19
2023-06-13T15:40:44.372Z,100879.97
2023-06-13T15:44:47.118Z,100888.28
2023-06-13T15:48:51.212Z,100880.88
2023-06-13T15:52:55.623Z,100882.16
2023-06-13T15:56:58.398Z,100880.53
2023-06-13T16:01:01.923Z,100873.28
2023-06-13T16:05:07.630Z,100873.22
2023-06-13T16:09:12.101Z,100870.41
2023-06-13T16:13:16.901Z,100859.88
2023-06-13T16:17:25.612Z,100869.81
2023-06-13T16:21:43.920Z,100864.78
2023-06-13T16:26:02.590Z,100864.22
2023-06-13T16:30:21.197Z,100873.72
2023-06-13T16:34:38.296Z,100864.81
2023-06-13T16:39:09.516Z,100869.13
2023-06-13T16:43:29.128Z,100870.00
2023-06-13T16:47:38.957Z,100864.69
2023-06-13T16:51:50.927Z,100866.06
2023-06-13T16:55:55.476Z,100864.59
2023-06-13T16:59:59.367Z,100879.41
2023-06-13T17:04:10.959Z,100875.63
2023-06-13T17:08:27.657Z,100868.34
2023-06-13T17:12:48.492Z,100877.84
2023-06-13T17:17:03.873Z,100880.38
2023-06-13T17:21:22.444Z,100873.97
2023-06-13T17:25:40.967Z,100876.19
2023-06-13T17:30:00.257Z,100869.28
2023-06-13T17:34:12.003Z,100876.56
2023-06-13T17:38:15.697Z,100877.44
2023-06-13T17:42:22.553Z,100876.38
2023-06-13T17:46:30.516Z,100874.72
2023-06-13T17:50:35.605Z,100880.72
2023-06-13T17:54:43.426Z,100882.78
2023-06-13T17:59:01.545Z,100883.59
2023-06-13T18:03:07.070Z,100889.28
2023-06-13T18:07:20.175Z,100896.16
2023-06-13T18:11:23.485Z,100901.03
2023-06-13T18:15:26.967Z,100892.63
2023-06-13T18:19:32.505Z,100893.56
2023-06-13T18:23:45.816Z,100901.25
2023-06-13T18:27:50.077Z,100901.81
2023-06-13T18:32:09.277Z,100899.75
2023-06-13T18:36:34.784Z,100903.06
2023-06-13T18:40:38.885Z,100907.31
2023-06-13T18:44:41.790Z,100902.81
2023-06-13T18:48:46.414Z,100904.00
2023-06-13T18:53:01.960Z,100905.03
2023-06-13T18:57:05.637Z,100917.97
2023-06-13T19:01:10.628Z,100915.41
2023-06-13T19:05:17.597Z,100916.66
2023-06-13T19:09:32.451Z,100919.97
2023-06-13T19:13:35.261Z,100925.06
2023-06-13T19:17:38.772Z,100927.34
2023-06-13T19:21:43.015Z,100932.41
2023-06-13T19:25:48.359Z,100932.31
2023-06-13T19:29:53.243Z,100936.53
2023-06-13T19:33:57.321Z,100945.97
2023-06-13T19:38:00.258Z,100944.63
2023-06-13T19:42:07.387Z,100952.06
2023-06-13T19:46:10.818Z,100946.56
2023-06-13T19:50:14.470Z,100956.78
2023-06-13T19:54:23.050Z,100973.69
2023-06-13T19:58:48.591Z,100971.66
2023-06-13T20:03:02.023Z,100977.72
2023-06-13T20:07:05.764Z,100978.25
2023-06-13T20:11:09.019Z,100983.19
2023-06-13T20:21:04.160Z,100996.25
2023-06-13T20:25:14.972Z,100996.06
2023-06-13T20:29:23.775Z,100996.69
2023-06-13T20:33:56.825Z,100999.94
2023-06-13T20:38:09.357Z,100996.97
2023-06-13T20:42:32.086Z,101008.69
2023-06-13T20:46:36.130Z,100997.53
2023-06-13T20:51:12.328Z,101005.97
2023-06-13T20:55:33.525Z,101011.47
2023-06-13T20:59:49.822Z,101018.63
2023-06-13T21:04:11.480Z,101017.88
2023-06-13T21:08:40.251Z,101017.31
2023-06-13T21:13:03.241Z,101020.34
2023-06-13T21:17:23.904Z,101026.94
2023-06-13T21:21:42.583Z,101029.47
2023-06-13T21:25:46.228Z,101040.00
2023-06-13T21:29:52.274Z,101043.81
2023-06-13T21:33:56.120Z,101049.50
2023-06-13T21:37:59.132Z,101050.66
2023-06-13T21:42:05.213Z,101054.97
2023-06-13T21:46:10.010Z,101060.41
2023-06-13T21:50:34.606Z,101056.69
2023-06-13T21:54:38.325Z,101062.94
2023-06-13T21:58:43.092Z,101066.13
2023-06-13T22:02:48.560Z,101065.22
2023-06-13T22:06:51.522Z,101059.25
2023-06-13T22:10:55.982Z,101068.47
2023-06-13T22:14:58.807Z,101075.84
2023-06-13T22:19:03.498Z,101072.44
2023-06-13T22:23:06.274Z,101084.94
2023-06-13T22:27:09.875Z,101078.41
2023-06-13T22:31:12.636Z,101080.75
2023-06-13T22:35:17.214Z,101096.31
2023-06-13T22:39:20.064Z,101112.16
2023-06-13T22:43:24.608Z,101102.09
2023-06-13T22:47:28.370Z,101107.47
2023-06-13T22:51:32.595Z,101108.91
2023-06-13T22:55:35.392Z,101103.44
2023-06-13T22:59:38.427Z,101105.47
2023-06-13T23:03:41.311Z,101114.34
2023-06-13T23:07:58.212Z,101115.31
2023-06-13T23:12:01.253Z,101111.53
2023-06-13T23:16:08.251Z,101112.47
2023-06-13T23:20:13.449Z,101110.66
2023-06-13T23:24:17.769Z,101111.53
2023-06-13T23:28:20.889Z,101111.31
2023-06-13T23:32:24.060Z,101106.16
2023-06-13T23:36:29.114Z,101121.66
2023-06-13T23:40:33.257Z,101130.00
2023-06-13T23:44:37.438Z,101124.00
2023-06-13T23:48:41.022Z,101128.47
2023-06-13T23:52:43.849Z,101129.06
2023-06-13T23:56:50.888Z,101128.59
